sensor_id;sensor_type;location;lat;lon;timestamp;pressure;altitude;pressure_sealevel;temperature;humidity
58367;BME280;57745;42.524;12.052;2023-04-20T00:00:21;96187.38;;;16.79;56.98
58367;BME280;57745;42.524;12.052;2023-04-20T00:02:47;96184.81;;;16.90;56.32
58367;BME280;57745;42.524;12.052;2023-04-20T00:05:12;96186.22;;;16.71;56.87
58367;BME280;57745;42.524;12.052;2023-04-20T00:07:37;96186.91;;;16.80;56.79
58367;BME280;57745;42.524;12.052;2023-04-20T00:10:06;96180.56;;;16.74;56.72
58367;BME280;57745;42.524;12.052;2023-04-20T00:12:32;96175.19;;;16.80;56.97
58367;BME280;57745;42.524;12.052;2023-04-20T00:14:57;96168.94;;;16.79;56.61
58367;BME280;57745;42.524;12.052;2023-04-20T00:17:23;96176.03;;;16.71;56.66
58367;BME280;57745;42.524;12.052;2023-04-20T00:19:48;96159.00;;;16.82;56.51
58367;BME280;57745;42.524;12.052;2023-04-20T00:22:14;96166.41;;;16.76;56.58
58367;BME280;57745;42.524;12.052;2023-04-20T00:24:39;96160.28;;;16.66;56.73
58367;BME280;57745;42.524;12.052;2023-04-20T00:27:05;96153.00;;;16.63;56.69
58367;BME280;57745;42.524;12.052;2023-04-20T00:29:31;96152.06;;;16.66;56.67
58367;BME280;57745;42.524;12.052;2023-04-20T00:31:56;96157.88;;;16.88;55.77
58367;BME280;57745;42.524;12.052;2023-04-20T00:34:21;96140.59;;;16.82;55.71
58367;BME280;57745;42.524;12.052;2023-04-20T00:36:47;96144.47;;;16.46;57.03
58367;BME280;57745;42.524;12.052;2023-04-20T00:39:12;96136.94;;;16.56;56.70
58367;BME280;57745;42.524;12.052;2023-04-20T00:41:38;96132.31;;;16.77;55.87
58367;BME280;57745;42.524;12.052;2023-04-20T00:44:05;96132.22;;;16.71;56.11
58367;BME280;57745;42.524;12.052;2023-04-20T00:46:32;96135.50;;;16.46;56.46
58367;BME280;57745;42.524;12.052;2023-04-20T00:48:58;96136.38;;;16.67;56.21
58367;BME280;57745;42.524;12.052;2023-04-20T00:51:24;96132.75;;;16.61;56.08
58367;BME280;57745;42.524;12.052;2023-04-20T00:53:50;96125.69;;;16.54;56.51
58367;BME280;57745;42.524;12.052;2023-04-20T00:56:15;96117.84;;;16.62;56.23
58367;BME280;57745;42.524;12.052;2023-04-20T00:58:42;96130.44;;;16.68;56.34
58367;BME280;57745;42.524;12.052;2023-04-20T01:01:09;96124.00;;;16.71;56.50
58367;BME280;57745;42.524;12.052;2023-04-20T01:03:35;96113.25;;;16.68;56.67
58367;BME280;57745;42.524;12.052;2023-04-20T01:06:01;96111.25;;;16.53;57.31
58367;BME280;57745;42.524;12.052;2023-04-20T01:08:27;96113.50;;;16.55;57.36
58367;BME280;57745;42.524;12.052;2023-04-20T01:10:55;96109.25;;;16.54;57.29
58367;BME280;57745;42.524;12.052;2023-04-20T01:13:20;96109.16;;;16.48;57.44
58367;BME280;57745;42.524;12.052;2023-04-20T01:15:46;96100.00;;;16.51;57.52
58367;BME280;57745;42.524;12.052;2023-04-20T01:18:11;96097.47;;;16.48;57.55
58367;BME280;57745;42.524;12.052;2023-04-20T01:20:37;96095.66;;;16.45;57.47
58367;BME280;57745;42.524;12.052;2023-04-20T01:23:03;96094.53;;;16.51;57.14
58367;BME280;57745;42.524;12.052;2023-04-20T01:25:28;96094.44;;;16.46;57.40
58367;BME280;57745;42.524;12.052;2023-04-20T01:27:54;96092.34;;;16.70;56.54
58367;BME280;57745;42.524;12.052;2023-04-20T01:30:19;96098.88;;;16.73;56.36
58367;BME280;57745;42.524;12.052;2023-04-20T01:32:45;96096.31;;;16.69;56.34
58367;BME280;57745;42.524;12.052;2023-04-20T01:35:11;96106.16;;;16.76;56.20
58367;BME280;57745;42.524;12.052;2023-04-20T01:37:37;96098.22;;;16.34;56.97
58367;BME280;57745;42.524;12.052;2023-04-20T01:40:03;96103.88;;;16.45;56.74
58367;BME280;57745;42.524;12.052;2023-04-20T01:42:30;96101.13;;;16.45;56.68
58367;BME280;57745;42.524;12.052;2023-04-20T01:44:56;96098.97;;;16.49;56.30
58367;BME280;57745;42.524;12.052;2023-04-20T01:47:21;96095.19;;;16.61;56.16
58367;BME280;57745;42.524;12.052;2023-04-20T01:49:47;96103.22;;;16.50;56.25
58367;BME280;57745;42.524;12.052;2023-04-20T01:52:12;96098.97;;;16.49;56.26
58367;BME280;57745;42.524;12.052;2023-04-20T01:54:37;96095.75;;;16.50;56.26
58367;BME280;57745;42.524;12.052;2023-04-20T01:57:03;96099.19;;;16.31;56.63
58367;BME280;57745;42.524;12.052;2023-04-20T01:59:28;96093.69;;;16.31;56.78
58367;BME280;57745;42.524;12.052;2023-04-20T02:01:54;96093.31;;;16.23;56.81
58367;BME280;57745;42.524;12.052;2023-04-20T02:04:20;96092.75;;;16.34;56.60
58367;BME280;57745;42.524;12.052;2023-04-20T02:06:45;96087.66;;;16.27;56.67
58367;BME280;57745;42.524;12.052;2023-04-20T02:09:11;96072.56;;;16.31;56.39
58367;BME280;57745;42.524;12.052;2023-04-20T02:11:36;96083.88;;;16.39;56.16
58367;BME280;57745;42.524;12.052;2023-04-20T02:14:01;96079.34;;;16.50;55.80
58367;BME280;57745;42.524;12.052;2023-04-20T02:16:27;96080.09;;;16.51;55.75
58367;BME280;57745;42.524;12.052;2023-04-20T02:18:55;96073.69;;;16.54;55.75
58367;BME280;57745;42.524;12.052;2023-04-20T02:21:20;96077.19;;;16.40;56.12
58367;BME280;57745;42.524;12.052;2023-04-20T02:23:46;96080.28;;;16.33;56.21
58367;BME280;57745;42.524;12.052;2023-04-20T02:26:11;96077.47;;;16.42;55.92
58367;BME280;57745;42.524;12.052;2023-04-20T02:28:37;96074.50;;;16.45;55.64
58367;BME280;57745;42.524;12.052;2023-04-20T02:31:02;96069.44;;;16.53;55.50
58367;BME280;57745;42.524;12.052;2023-04-20T02:33:27;96076.50;;;16.45;55.42
58367;BME280;57745;42.524;12.052;2023-04-20T02:35:53;96070.84;;;16.34;55.98
58367;BME280;57745;42.524;12.052;2023-04-20T02:38:18;96069.06;;;16.31;55.66
58367;BME280;57745;42.524;12.052;2023-04-20T02:40:44;96070.19;;;16.39;55.63
58367;BME280;57745;42.524;12.052;2023-04-20T02:43:09;96067.75;;;16.41;55.29
58367;BME280;57745;42.524;12.052;2023-04-20T02:45:35;96067.84;;;16.32;55.46
58367;BME280;57745;42.524;12.052;2023-04-20T02:48:01;96056.50;;;16.39;55.38
58367;BME280;57745;42.524;12.052;2023-04-20T02:50:26;96056.69;;;16.35;55.80
58367;BME280;57745;42.524;12.052;2023-04-20T02:52:51;96064.44;;;16.37;55.59
58367;BME280;57745;42.524;12.052;2023-04-20T02:55:17;96060.28;;;16.27;56.11
58367;BME280;57745;42.524;12.052;2023-04-20T02:57:42;96064.44;;;16.22;56.07
58367;BME280;57745;42.524;12.052;2023-04-20T03:00:09;96071.59;;;16.34;55.44
58367;BME280;57745;42.524;12.052;2023-04-20T03:02:37;96062.84;;;16.15;55.59
58367;BME280;57745;42.524;12.052;2023-04-20T03:05:03;96061.97;;;16.24;55.20
58367;BME280;57745;42.524;12.052;2023-04-20T03:07:29;96077.84;;;16.35;54.85
58367;BME280;57745;42.524;12.052;2023-04-20T03:09:55;96066.88;;;16.35;54.94
58367;BME280;57745;42.524;12.052;2023-04-20T03:12:21;96067.63;;;16.21;55.44
58367;BME280;57745;42.524;12.052;2023-04-20T03:14:47;96067.09;;;16.31;55.14
58367;BME280;57745;42.524;12.052;2023-04-20T03:17:12;96076.41;;;16.25;55.36
58367;BME280;57745;42.524;12.052;2023-04-20T03:19:38;96067.75;;;16.11;56.08
58367;BME280;57745;42.524;12.052;2023-04-20T03:22:04;96077.47;;;16.12;55.70
58367;BME280;57745;42.524;12.052;2023-04-20T03:24:29;96074.44;;;16.40;55.12
58367;BME280;57745;42.524;12.052;2023-04-20T03:26:55;96077.06;;;16.20;55.77
58367;BME280;57745;42.524;12.052;2023-04-20T03:29:20;96075.28;;;16.16;55.98
58367;BME280;57745;42.524;12.052;2023-04-20T03:31:45;96065.75;;;16.27;55.64
58367;BME280;57745;42.524;12.052;2023-04-20T03:34:11;96063.50;;;16.25;55.61
58367;BME280;57745;42.524;12.052;2023-04-20T03:36:36;96064.25;;;16.26;55.40
58367;BME280;57745;42.524;12.052;2023-04-20T03:39:02;96067.00;;;16.26;55.39
58367;BME280;57745;42.524;12.052;2023-04-20T03:41:29;96072.72;;;15.98;56.12
58367;BME280;57745;42.524;12.052;2023-04-20T03:43:55;96072.91;;;16.09;55.89
58367;BME280;57745;42.524;12.052;2023-04-20T03:46:20;96076.88;;;16.08;55.75
58367;BME280;57745;42.524;12.052;2023-04-20T03:48:46;96078.03;;;16.16;55.77
58367;BME280;57745;42.524;12.052;2023-04-20T03:51:11;96069.72;;;16.11;55.75
58367;BME280;57745;42.524;12.052;2023-04-20T03:53:36;96071.06;;;16.15;55.86
58367;BME280;57745;42.524;12.052;2023-04-20T03:56:02;96072.38;;;16.05;56.02
58367;BME280;57745;42.524;12.052;2023-04-20T03:58:27;96074.44;;;16.10;55.82
58367;BME280;57745;42.524;12.052;2023-04-20T04:01:02;96077.66;;;16.24;55.43
58367;BME280;57745;42.524;12.052;2023-04-20T04:03:28;96083.13;;;16.24;55.26
58367;BME280;57745;42.524;12.052;2023-04-20T04:05:54;96076.72;;;16.41;54.81
58367;BME280;57745;42.524;12.052;2023-04-20T04:08:19;96077.53;;;16.33;54.95
58367;BME280;57745;42.524;12.052;2023-04-20T04:10:45;96073.97;;;16.27;55.22
58367;BME280;57745;42.524;12.052;2023-04-20T04:13:10;96073.88;;;16.21;55.19
58367;BME280;57745;42.524;12.052;2023-04-20T04:15:35;96079.91;;;16.10;55.57
58367;BME280;57745;42.524;12.052;2023-04-20T04:18:01;96082.53;;;16.20;55.42
58367;BME280;57745;42.524;12.052;2023-04-20T04:20:26;96078.94;;;15.99;56.02
58367;BME280;57745;42.524;12.052;2023-04-20T04:22:52;96076.69;;;16.12;55.73
58367;BME280;57745;42.524;12.052;2023-04-20T04:25:17;96076.72;;;16.27;55.33
58367;BME280;57745;42.524;12.052;2023-04-20T04:27:43;96080.84;;;16.22;55.42
58367;BME280;57745;42.524;12.052;2023-04-20T04:30:11;96087.25;;;16.34;55.30
58367;BME280;57745;42.524;12.052;2023-04-20T04:32:36;96084.34;;;16.23;55.52
58367;BME280;57745;42.524;12.052;2023-04-20T04:35:02;96086.91;;;16.26;55.51
58367;BME280;57745;42.524;12.052;2023-04-20T04:37:27;96084.06;;;16.21;55.58
58367;BME280;57745;42.524;12.052;2023-04-20T04:39:53;96085.19;;;16.14;56.14
58367;BME280;57745;42.524;12.052;2023-04-20T04:42:18;96090.19;;;16.15;55.94
58367;BME280;57745;42.524;12.052;2023-04-20T04:44:44;96096.69;;;16.33;55.48
58367;BME280;57745;42.524;12.052;2023-04-20T04:47:09;96096.69;;;16.03;56.25
58367;BME280;57745;42.524;12.052;2023-04-20T04:49:36;96103.59;;;16.13;55.71
58367;BME280;57745;42.524;12.052;2023-04-20T04:52:01;96099.72;;;16.20;55.62
58367;BME280;57745;42.524;12.052;2023-04-20T04:54:27;96101.91;;;16.16;55.38
58367;BME280;57745;42.524;12.052;2023-04-20T04:56:52;96115.47;;;16.10;55.46
58367;BME280;57745;42.524;12.052;2023-04-20T04:59:18;96116.41;;;16.07;55.57
58367;BME280;57745;42.524;12.052;2023-04-20T05:01:43;96106.16;;;16.32;54.77
58367;BME280;57745;42.524;12.052;2023-04-20T05:04:08;96116.13;;;16.05;55.37
58367;BME280;57745;42.524;12.052;2023-04-20T05:06:34;96113.31;;;16.14;55.16
58367;BME280;57745;42.524;12.052;2023-04-20T05:08:59;96108.00;;;15.96;55.37
58367;BME280;57745;42.524;12.052;2023-04-20T05:11:24;96113.47;;;15.82;55.83
58367;BME280;57745;42.524;12.052;2023-04-20T05:13:50;96112.94;;;16.22;55.09
58367;BME280;57745;42.524;12.052;2023-04-20T05:16:15;96123.41;;;16.23;54.64
58367;BME280;57745;42.524;12.052;2023-04-20T05:18:41;96117.56;;;16.15;55.09
58367;BME280;57745;42.524;12.052;2023-04-20T05:21:06;96121.75;;;15.87;55.90
58367;BME280;57745;42.524;12.052;2023-04-20T05:23:32;96120.06;;;15.90;56.09
58367;BME280;57745;42.524;12.052;2023-04-20T05:25:57;96122.25;;;16.00;55.68
58367;BME280;57745;42.524;12.052;2023-04-20T05:28:23;96119.31;;;15.89;56.15
58367;BME280;57745;42.524;12.052;2023-04-20T05:30:48;96125.78;;;15.77;55.88
58367;BME280;57745;42.524;12.052;2023-04-20T05:33:14;96120.94;;;16.10;55.23
58367;BME280;57745;42.524;12.052;2023-04-20T05:35:39;96120.38;;;16.06;55.48
58367;BME280;57745;42.524;12.052;2023-04-20T05:38:05;96117.56;;;16.15;55.27
58367;BME280;57745;42.524;12.052;2023-04-20T05:40:31;96113.13;;;16.03;55.67
58367;BME280;57745;42.524;12.052;2023-04-20T05:42:58;96124.41;;;15.96;55.80
58367;BME280;57745;42.524;12.052;2023-04-20T05:45:25;96127.28;;;16.16;55.46
58367;BME280;57745;42.524;12.052;2023-04-20T05:47:51;96119.44;;;16.09;55.69
58367;BME280;57745;42.524;12.052;2023-04-20T05:50:17;96129.63;;;16.09;55.55
58367;BME280;57745;42.524;12.052;2023-04-20T05:52:43;96134.13;;;15.97;56.19
58367;BME280;57745;42.524;12.052;2023-04-20T05:55:08;96134.03;;;15.92;56.47
58367;BME280;57745;42.524;12.052;2023-04-20T05:57:34;96132.56;;;16.05;56.13
58367;BME280;57745;42.524;12.052;2023-04-20T06:00:16;96136.78;;;16.06;56.12
58367;BME280;57745;42.524;12.052;2023-04-20T06:02:52;96140.53;;;15.94;56.63
58367;BME280;57745;42.524;12.052;2023-04-20T06:05:19;96135.94;;;16.15;56.15
58367;BME280;57745;42.524;12.052;2023-04-20T06:07:45;96127.72;;;16.00;56.67
58367;BME280;57745;42.524;12.052;2023-04-20T06:10:10;96133.09;;;16.09;56.32
58367;BME280;57745;42.524;12.052;2023-04-20T06:12:36;96127.63;;;16.09;56.50
58367;BME280;57745;42.524;12.052;2023-04-20T06:15:02;96128.75;;;16.03;56.85
58367;BME280;57745;42.524;12.052;2023-04-20T06:17:30;96127.00;;;16.14;56.59
58367;BME280;57745;42.524;12.052;2023-04-20T06:19:56;96128.06;;;16.32;56.10
58367;BME280;57745;42.524;12.052;2023-04-20T06:22:21;96137.28;;;16.34;55.97
58367;BME280;57745;42.524;12.052;2023-04-20T06:24:47;96146.72;;;16.19;56.80
58367;BME280;57745;42.524;12.052;2023-04-20T06:27:12;96138.97;;;16.17;56.93
58367;BME280;57745;42.524;12.052;2023-04-20T06:29:38;96140.13;;;16.25;56.80
58367;BME280;57745;42.524;12.052;2023-04-20T06:32:03;96146.72;;;16.19;57.03
58367;BME280;57745;42.524;12.052;2023-04-20T06:34:29;96142.41;;;16.41;56.03
58367;BME280;57745;42.524;12.052;2023-04-20T06:36:55;96150.22;;;16.19;56.60
58367;BME280;57745;42.524;12.052;2023-04-20T06:39:20;96138.88;;;16.26;56.48
58367;BME280;57745;42.524;12.052;2023-04-20T06:41:46;96148.97;;;16.35;55.92
58367;BME280;57745;42.524;12.052;2023-04-20T06:44:11;96146.34;;;16.26;56.43
58367;BME280;57745;42.524;12.052;2023-04-20T06:46:37;96142.41;;;16.41;55.79
58367;BME280;57745;42.524;12.052;2023-04-20T06:49:02;96148.81;;;16.38;56.03
58367;BME280;57745;42.524;12.052;2023-04-20T06:51:28;96153.47;;;16.08;56.96
58367;BME280;57745;42.524;12.052;2023-04-20T06:53:55;96150.88;;;16.29;56.45
58367;BME280;57745;42.524;12.052;2023-04-20T06:56:21;96149.19;;;16.46;56.01
58367;BME280;57745;42.524;12.052;2023-04-20T06:58:47;96154.09;;;16.42;55.95
58367;BME280;57745;42.524;12.052;2023-04-20T07:01:12;96160.78;;;16.26;56.44
58367;BME280;57745;42.524;12.052;2023-04-20T07:03:38;96163.63;;;16.32;56.56
58367;BME280;57745;42.524;12.052;2023-04-20T07:06:04;96165.22;;;16.38;56.09
58367;BME280;57745;42.524;12.052;2023-04-20T07:08:31;96158.31;;;16.13;56.47
58367;BME280;57745;42.524;12.052;2023-04-20T07:10:57;96158.16;;;16.32;56.04
58367;BME280;57745;42.524;12.052;2023-04-20T07:13:22;96164.31;;;16.56;55.30
58367;BME280;57745;42.524;12.052;2023-04-20T07:15:48;96159.09;;;16.29;56.78
58367;BME280;57745;42.524;12.052;2023-04-20T07:18:13;96158.00;;;16.11;57.05
58367;BME280;57745;42.524;12.052;2023-04-20T07:20:39;96150.13;;;16.58;55.62
58367;BME280;57745;42.524;12.052;2023-04-20T07:23:04;96159.00;;;16.52;55.83
58367;BME280;57745;42.524;12.052;2023-04-20T07:25:29;96160.13;;;16.46;55.94
58367;BME280;57745;42.524;12.052;2023-04-20T07:27:57;96156.44;;;16.34;56.53
58367;BME280;57745;42.524;12.052;2023-04-20T07:30:23;96155.50;;;16.52;56.02
58367;BME280;57745;42.524;12.052;2023-04-20T07:32:48;96148.34;;;16.40;55.82
58367;BME280;57745;42.524;12.052;2023-04-20T07:35:15;96153.63;;;16.58;55.80
58367;BME280;57745;42.524;12.052;2023-04-20T07:37:40;96152.38;;;16.59;55.50
58367;BME280;57745;42.524;12.052;2023-04-20T07:40:07;96145.50;;;16.49;55.47
58367;BME280;57745;42.524;12.052;2023-04-20T07:42:33;96153.16;;;16.30;56.18
58367;BME280;57745;42.524;12.052;2023-04-20T07:45:02;96154.28;;;16.53;55.75
58367;BME280;57745;42.524;12.052;2023-04-20T07:47:28;96150.69;;;16.62;55.20
58367;BME280;57745;42.524;12.052;2023-04-20T07:49:53;96157.50;;;16.51;55.39
58367;BME280;57745;42.524;12.052;2023-04-20T07:52:19;96153.22;;;16.36;55.63
58367;BME280;57745;42.524;12.052;2023-04-20T07:54:44;96149.09;;;16.55;55.21
58367;BME280;57745;42.524;12.052;2023-04-20T07:57:10;96146.00;;;16.62;55.46
58367;BME280;57745;42.524;12.052;2023-04-20T07:59:36;96153.75;;;16.64;55.92
58367;BME280;57745;42.524;12.052;2023-04-20T08:02:02;96153.63;;;16.58;55.88
58367;BME280;57745;42.524;12.052;2023-04-20T08:04:28;96157.00;;;16.24;56.14
58367;BME280;57745;42.524;12.052;2023-04-20T08:06:53;96167.03;;;16.41;55.86
58367;BME280;57745;42.524;12.052;2023-04-20T08:09:19;96166.38;;;16.32;56.03
58367;BME280;57745;42.524;12.052;2023-04-20T08:11:45;96164.31;;;16.56;55.08
58367;BME280;57745;42.524;12.052;2023-04-20T08:14:11;96165.53;;;16.55;55.01
58367;BME280;57745;42.524;12.052;2023-04-20T08:16:37;96163.28;;;16.68;54.97
58367;BME280;57745;42.524;12.052;2023-04-20T08:19:03;96161.50;;;16.65;54.86
58367;BME280;57745;42.524;12.052;2023-04-20T08:21:35;96167.22;;;16.52;55.02
58367;BME280;57745;42.524;12.052;2023-04-20T08:24:01;96162.03;;;16.84;53.94
58367;BME280;57745;42.524;12.052;2023-04-20T08:26:26;96160.59;;;16.59;54.43
58367;BME280;57745;42.524;12.052;2023-04-20T08:28:51;96160.72;;;16.79;54.27
58367;BME280;57745;42.524;12.052;2023-04-20T08:31:17;96167.16;;;16.76;53.90
58367;BME280;57745;42.524;12.052;2023-04-20T08:33:42;96165.25;;;16.82;54.08
58367;BME280;57745;42.524;12.052;2023-04-20T08:36:08;96158.53;;;16.83;53.90
58367;BME280;57745;42.524;12.052;2023-04-20T08:38:33;96165.22;;;17.12;53.24
58367;BME280;57745;42.524;12.052;2023-04-20T08:40:59;96166.91;;;17.09;53.42
58367;BME280;57745;42.524;12.052;2023-04-20T08:43:24;96165.34;;;17.03;53.36
58367;BME280;57745;42.524;12.052;2023-04-20T08:45:51;96165.03;;;17.01;53.42
58367;BME280;57745;42.524;12.052;2023-04-20T08:48:18;96164.69;;;16.93;53.31
58367;BME280;57745;42.524;12.052;2023-04-20T08:50:46;96162.97;;;16.96;53.37
58367;BME280;57745;42.524;12.052;2023-04-20T08:53:12;96157.75;;;17.12;53.20
58367;BME280;57745;42.524;12.052;2023-04-20T08:55:38;96155.16;;;16.88;53.76
58367;BME280;57745;42.524;12.052;2023-04-20T08:58:03;96155.41;;;17.05;53.30
58367;BME280;57745;42.524;12.052;2023-04-20T09:00:29;96159.53;;;17.15;53.02
58367;BME280;57745;42.524;12.052;2023-04-20T09:02:54;96149.06;;;17.14;52.85
58367;BME280;57745;42.524;12.052;2023-04-20T09:05:28;96140.16;;;17.19;52.71
58367;BME280;57745;42.524;12.052;2023-04-20T09:07:55;96153.19;;;17.24;52.74
58367;BME280;57745;42.524;12.052;2023-04-20T09:10:22;96156.25;;;17.11;53.38
58367;BME280;57745;42.524;12.052;2023-04-20T09:12:51;96148.47;;;17.24;52.82
58367;BME280;57745;42.524;12.052;2023-04-20T09:15:30;96146.47;;;17.25;52.78
58367;BME280;57745;42.524;12.052;2023-04-20T09:17:56;96145.69;;;17.39;52.53
58367;BME280;57745;42.524;12.052;2023-04-20T09:20:32;96158.53;;;17.33;52.58
58367;BME280;57745;42.524;12.052;2023-04-20T09:23:12;96156.78;;;17.50;52.09
58367;BME280;57745;42.524;12.052;2023-04-20T09:25:38;96148.47;;;17.45;52.00
58367;BME280;57745;42.524;12.052;2023-04-20T09:28:05;96150.47;;;17.44;52.11
58367;BME280;57745;42.524;12.052;2023-04-20T09:30:38;96147.25;;;17.46;51.72
58367;BME280;57745;42.524;12.052;2023-04-20T09:33:04;96140.59;;;17.32;51.71
58367;BME280;57745;42.524;12.052;2023-04-20T09:35:31;96150.97;;;17.43;50.97
58367;BME280;57745;42.524;12.052;2023-04-20T09:37:56;96149.09;;;17.34;50.71
58367;BME280;57745;42.524;12.052;2023-04-20T09:40:24;96137.88;;;17.52;50.33
58367;BME280;57745;42.524;12.052;2023-04-20T09:42:52;96135.53;;;17.45;51.08
58367;BME280;57745;42.524;12.052;2023-04-20T09:45:19;96143.75;;;17.45;51.21
58367;BME280;57745;42.524;12.052;2023-04-20T09:47:46;96137.75;;;17.41;51.13
58367;BME280;57745;42.524;12.052;2023-04-20T09:50:12;96137.84;;;17.32;51.15
58367;BME280;57745;42.524;12.052;2023-04-20T09:52:37;96141.47;;;17.44;51.11
58367;BME280;57745;42.524;12.052;2023-04-20T09:55:04;96132.63;;;17.34;51.28
58367;BME280;57745;42.524;12.052;2023-04-20T09:57:31;96124.97;;;17.38;51.60
58367;BME280;57745;42.524;12.052;2023-04-20T09:59:57;96122.50;;;17.60;50.89
58367;BME280;57745;42.524;12.052;2023-04-20T10:02:24;96130.88;;;17.51;51.52
58367;BME280;57745;42.524;12.052;2023-04-20T10:04:54;96133.69;;;17.57;51.40
58367;BME280;57745;42.524;12.052;2023-04-20T10:07:26;96126.78;;;17.41;51.35
58367;BME280;57745;42.524;12.052;2023-04-20T10:10:12;96121.72;;;17.54;50.79
58367;BME280;57745;42.524;12.052;2023-04-20T10:12:50;96124.03;;;17.62;50.17
58367;BME280;57745;42.524;12.052;2023-04-20T10:15:17;96126.22;;;17.57;50.01
58367;BME280;57745;42.524;12.052;2023-04-20T10:17:43;96112.44;;;17.52;50.04
58367;BME280;57745;42.524;12.052;2023-04-20T10:20:25;96114.28;;;17.60;50.13
58367;BME280;57745;42.524;12.052;2023-04-20T10:22:51;96110.47;;;17.52;50.29
58367;BME280;57745;42.524;12.052;2023-04-20T10:25:22;96117.47;;;17.53;50.06
58367;BME280;57745;42.524;12.052;2023-04-20T10:27:59;96112.88;;;17.65;49.91
58367;BME280;57745;42.524;12.052;2023-04-20T10:30:26;96111.00;;;17.56;50.11
58367;BME280;57745;42.524;12.052;2023-04-20T10:33:08;96115.66;;;17.50;49.70
58367;BME280;57745;42.524;12.052;2023-04-20T10:36:00;96110.75;;;17.54;49.99
58367;BME280;57745;42.524;12.052;2023-04-20T10:40:54;96096.22;;;17.69;49.60
58367;BME280;57745;42.524;12.052;2023-04-20T10:43:29;96095.69;;;17.65;49.78
58367;BME280;57745;42.524;12.052;2023-04-20T10:45:54;96096.28;;;17.54;49.90
58367;BME280;57745;42.524;12.052;2023-04-20T10:48:20;96095.69;;;17.65;49.85
58367;BME280;57745;42.524;12.052;2023-04-20T10:50:45;96090.25;;;17.70;49.63
58367;BME280;57745;42.524;12.052;2023-04-20T10:53:21;96085.13;;;17.78;49.20
58367;BME280;57745;42.524;12.052;2023-04-20T10:55:57;96090.19;;;17.65;49.40
58367;BME280;57745;42.524;12.052;2023-04-20T10:58:23;96079.16;;;17.79;49.58
58367;BME280;57745;42.524;12.052;2023-04-20T11:01:04;96086.75;;;17.70;49.63
58367;BME280;57745;42.524;12.052;2023-04-20T11:03:31;96072.41;;;17.60;50.19
58367;BME280;57745;42.524;12.052;2023-04-20T11:05:58;96063.31;;;17.69;49.98
58367;BME280;57745;42.524;12.052;2023-04-20T11:08:41;96076.19;;;17.63;50.10
58367;BME280;57745;42.524;12.052;2023-04-20T11:11:23;96066.03;;;17.89;49.66
58367;BME280;57745;42.524;12.052;2023-04-20T11:13:52;96066.56;;;17.67;50.15
58367;BME280;57745;42.524;12.052;2023-04-20T11:16:28;96063.69;;;17.82;49.75
58367;BME280;57745;42.524;12.052;2023-04-20T11:18:54;96062.13;;;17.75;49.99
58367;BME280;57745;42.524;12.052;2023-04-20T11:21:21;96060.44;;;17.78;50.25
58367;BME280;57745;42.524;12.052;2023-04-20T11:23:47;96049.66;;;17.74;50.23
58367;BME280;57745;42.524;12.052;2023-04-20T11:26:13;96049.88;;;17.71;50.34
58367;BME280;57745;42.524;12.052;2023-04-20T11:28:53;96042.88;;;17.70;50.45
58367;BME280;57745;42.524;12.052;2023-04-20T11:31:18;96049.94;;;17.76;50.41
58367;BME280;57745;42.524;12.052;2023-04-20T11:33:44;96048.44;;;17.75;50.58
58367;BME280;57745;42.524;12.052;2023-04-20T11:36:20;96040.78;;;17.85;50.35
58367;BME280;57745;42.524;12.052;2023-04-20T11:38:46;96042.06;;;17.64;51.11
58367;BME280;57745;42.524;12.052;2023-04-20T11:41:12;96035.03;;;17.83;50.10
58367;BME280;57745;42.524;12.052;2023-04-20T11:43:37;96043.25;;;17.83;50.21
58367;BME280;57745;42.524;12.052;2023-04-20T11:46:16;96042.38;;;17.91;49.90
58367;BME280;57745;42.524;12.052;2023-04-20T11:48:42;96044.50;;;17.82;50.15
58367;BME280;57745;42.524;12.052;2023-04-20T11:51:08;96042.13;;;17.95;49.83
58367;BME280;57745;42.524;12.052;2023-04-20T11:53:33;96044.34;;;17.91;50.05
58367;BME280;57745;42.524;12.052;2023-04-20T11:55:59;96044.09;;;17.89;49.94
58367;BME280;57745;42.524;12.052;2023-04-20T11:58:24;96043.44;;;18.00;49.80
58367;BME280;57745;42.524;12.052;2023-04-20T12:00:49;96045.34;;;17.93;49.74
58367;BME280;57745;42.524;12.052;2023-04-20T12:03:15;96039.47;;;18.01;49.53
58367;BME280;57745;42.524;12.052;2023-04-20T12:05:40;96028.84;;;17.88;49.94
58367;BME280;57745;42.524;12.052;2023-04-20T12:08:07;96029.13;;;17.90;50.76
58367;BME280;57745;42.524;12.052;2023-04-20T12:10:33;96022.19;;;17.94;50.85
58367;BME280;57745;42.524;12.052;2023-04-20T12:12:58;96027.72;;;18.00;50.88
58367;BME280;57745;42.524;12.052;2023-04-20T12:15:25;96023.47;;;17.99;50.84
58367;BME280;57745;42.524;12.052;2023-04-20T12:17:51;96024.44;;;17.96;51.17
58367;BME280;57745;42.524;12.052;2023-04-20T12:20:17;96030.69;;;17.97;51.22
58367;BME280;57745;42.524;12.052;2023-04-20T12:22:43;96031.59;;;17.88;51.44
58367;BME280;57745;42.524;12.052;2023-04-20T12:25:08;96017.72;;;17.97;51.12
58367;BME280;57745;42.524;12.052;2023-04-20T12:27:34;96022.88;;;17.89;51.52
58367;BME280;57745;42.524;12.052;2023-04-20T12:29:59;96018.94;;;17.96;51.19
58367;BME280;57745;42.524;12.052;2023-04-20T12:32:25;96019.78;;;18.02;51.17
58367;BME280;57745;42.524;12.052;2023-04-20T12:34:51;96016.97;;;17.97;51.30
58367;BME280;57745;42.524;12.052;2023-04-20T12:37:16;96019.00;;;18.02;51.20
58367;BME280;57745;42.524;12.052;2023-04-20T12:39:41;96016.22;;;17.96;51.44
58367;BME280;57745;42.524;12.052;2023-04-20T12:42:07;96020.63;;;17.88;51.58
58367;BME280;57745;42.524;12.052;2023-04-20T12:44:32;96007.69;;;17.94;51.22
58367;BME280;57745;42.524;12.052;2023-04-20T12:46:58;96002.97;;;17.94;51.40
58367;BME280;57745;42.524;12.052;2023-04-20T12:49:23;96007.81;;;18.05;51.25